sensor_id;sensor_type;location;lat;lon;timestamp;P1;durP1;ratioP1;P2;durP2;ratioP2
75639;SDS011;64233;51.486;6.332;2024-01-30T00:01:51;13.30;;;8.80;;
75639;SDS011;64233;51.486;6.332;2024-01-30T00:04:20;15.40;;;8.35;;
75639;SDS011;64233;51.486;6.332;2024-01-30T00:06:45;12.15;;;7.70;;
75639;SDS011;64233;51.486;6.332;2024-01-30T00:09:10;15.03;;;7.90;;
75639;SDS011;64233;51.486;6.332;2024-01-30T00:11:39;14.50;;;8.20;;
75639;SDS011;64233;51.486;6.332;2024-01-30T00:14:04;12.20;;;7.63;;
75639;SDS011;64233;51.486;6.332;2024-01-30T00:16:29;15.07;;;8.00;;
75639;SDS011;64233;51.486;6.332;2024-01-30T00:18:55;12.95;;;8.23;;
75639;SDS011;64233;51.486;6.332;2024-01-30T00:21:20;13.02;;;7.93;;
75639;SDS011;64233;51.486;6.332;2024-01-30T00:23:46;13.55;;;7.85;;
75639;SDS011;64233;51.486;6.332;2024-01-30T00:26:11;9.05;;;6.50;;
75639;SDS011;64233;51.486;6.332;2024-01-30T00:28:39;11.18;;;7.40;;
75639;SDS011;64233;51.486;6.332;2024-01-30T00:31:05;10.00;;;6.95;;
75639;SDS011;64233;51.486;6.332;2024-01-30T00:33:31;11.40;;;7.13;;
75639;SDS011;64233;51.486;6.332;2024-01-30T00:35:58;11.63;;;7.07;;
75639;SDS011;64233;51.486;6.332;2024-01-30T00:38:23;13.70;;;8.93;;
75639;SDS011;64233;51.486;6.332;2024-01-30T00:40:49;14.10;;;7.13;;
75639;SDS011;64233;51.486;6.332;2024-01-30T00:43:16;20.70;;;8.00;;
75639;SDS011;64233;51.486;6.332;2024-01-30T00:45:41;11.40;;;7.30;;
75639;SDS011;64233;51.486;6.332;2024-01-30T00:48:10;10.13;;;7.68;;
75639;SDS011;64233;51.486;6.332;2024-01-30T00:50:36;12.98;;;8.30;;
75639;SDS011;64233;51.486;6.332;2024-01-30T00:53:03;15.95;;;8.38;;
75639;SDS011;64233;51.486;6.332;2024-01-30T00:55:28;13.88;;;8.20;;
75639;SDS011;64233;51.486;6.332;2024-01-30T00:57:53;12.20;;;8.07;;
75639;SDS011;64233;51.486;6.332;2024-01-30T01:00:18;17.80;;;8.63;;
75639;SDS011;64233;51.486;6.332;2024-01-30T01:02:45;16.45;;;8.65;;
75639;SDS011;64233;51.486;6.332;2024-01-30T01:05:11;14.48;;;8.15;;
75639;SDS011;64233;51.486;6.332;2024-01-30T01:07:36;14.23;;;7.70;;
75639;SDS011;64233;51.486;6.332;2024-01-30T01:10:01;15.67;;;8.03;;
75639;SDS011;64233;51.486;6.332;2024-01-30T01:12:27;14.77;;;8.15;;
75639;SDS011;64233;51.486;6.332;2024-01-30T01:14:52;13.73;;;8.07;;
75639;SDS011;64233;51.486;6.332;2024-01-30T01:17:17;16.27;;;7.77;;
75639;SDS011;64233;51.486;6.332;2024-01-30T01:19:43;14.68;;;7.90;;
75639;SDS011;64233;51.486;6.332;2024-01-30T01:22:08;14.70;;;8.63;;
75639;SDS011;64233;51.486;6.332;2024-01-30T01:24:34;15.57;;;9.50;;
75639;SDS011;64233;51.486;6.332;2024-01-30T01:26:59;14.53;;;8.57;;
75639;SDS011;64233;51.486;6.332;2024-01-30T01:29:24;12.57;;;8.38;;
75639;SDS011;64233;51.486;6.332;2024-01-30T01:31:54;17.02;;;9.10;;
75639;SDS011;64233;51.486;6.332;2024-01-30T01:34:19;13.82;;;8.43;;
75639;SDS011;64233;51.486;6.332;2024-01-30T01:36:44;15.00;;;8.80;;
75639;SDS011;64233;51.486;6.332;2024-01-30T01:39:09;17.35;;;10.73;;
75639;SDS011;64233;51.486;6.332;2024-01-30T01:41:35;16.65;;;12.05;;
75639;SDS011;64233;51.486;6.332;2024-01-30T01:44:00;15.67;;;9.40;;
75639;SDS011;64233;51.486;6.332;2024-01-30T01:46:26;13.50;;;8.60;;
75639;SDS011;64233;51.486;6.332;2024-01-30T01:48:52;17.20;;;9.10;;
75639;SDS011;64233;51.486;6.332;2024-01-30T01:51:17;16.38;;;8.43;;
75639;SDS011;64233;51.486;6.332;2024-01-30T01:53:42;18.85;;;8.80;;
75639;SDS011;64233;51.486;6.332;2024-01-30T01:56:08;19.17;;;9.90;;
75639;SDS011;64233;51.486;6.332;2024-01-30T01:58:33;15.20;;;9.13;;
75639;SDS011;64233;51.486;6.332;2024-01-30T02:00:58;13.60;;;8.30;;
75639;SDS011;64233;51.486;6.332;2024-01-30T02:03:24;12.18;;;7.75;;
75639;SDS011;64233;51.486;6.332;2024-01-30T02:05:50;12.98;;;7.47;;
75639;SDS011;64233;51.486;6.332;2024-01-30T02:08:20;13.30;;;8.30;;
75639;SDS011;64233;51.486;6.332;2024-01-30T02:10:46;13.80;;;7.00;;
75639;SDS011;64233;51.486;6.332;2024-01-30T02:13:11;14.77;;;8.33;;
75639;SDS011;64233;51.486;6.332;2024-01-30T02:15:39;12.45;;;6.85;;
75639;SDS011;64233;51.486;6.332;2024-01-30T02:20:43;20.05;;;8.55;;
75639;SDS011;64233;51.486;6.332;2024-01-30T02:23:09;14.25;;;7.50;;
75639;SDS011;64233;51.486;6.332;2024-01-30T02:25:44;13.68;;;7.68;;
75639;SDS011;64233;51.486;6.332;2024-01-30T02:28:13;12.55;;;7.53;;
75639;SDS011;64233;51.486;6.332;2024-01-30T02:30:47;12.40;;;7.20;;
75639;SDS011;64233;51.486;6.332;2024-01-30T02:33:13;11.70;;;7.90;;
75639;SDS011;64233;51.486;6.332;2024-01-30T02:35:38;9.90;;;7.18;;
75639;SDS011;64233;51.486;6.332;2024-01-30T02:38:04;12.00;;;7.05;;
75639;SDS011;64233;51.486;6.332;2024-01-30T02:40:29;15.40;;;7.22;;
75639;SDS011;64233;51.486;6.332;2024-01-30T02:42:55;19.15;;;8.45;;
75639;SDS011;64233;51.486;6.332;2024-01-30T02:45:20;12.80;;;7.93;;
75639;SDS011;64233;51.486;6.332;2024-01-30T02:47:48;11.73;;;6.60;;
75639;SDS011;64233;51.486;6.332;2024-01-30T02:50:13;18.10;;;9.30;;
75639;SDS011;64233;51.486;6.332;2024-01-30T02:52:43;13.18;;;7.35;;
75639;SDS011;64233;51.486;6.332;2024-01-30T02:55:11;11.15;;;6.90;;
75639;SDS011;64233;51.486;6.332;2024-01-30T02:57:42;12.38;;;7.85;;
75639;SDS011;64233;51.486;6.332;2024-01-30T03:00:07;12.35;;;7.72;;
75639;SDS011;64233;51.486;6.332;2024-01-30T03:02:34;9.82;;;6.93;;
75639;SDS011;64233;51.486;6.332;2024-01-30T03:04:59;13.82;;;7.72;;
75639;SDS011;64233;51.486;6.332;2024-01-30T03:07:25;10.95;;;7.20;;
75639;SDS011;64233;51.486;6.332;2024-01-30T03:09:50;13.20;;;7.30;;
75639;SDS011;64233;51.486;6.332;2024-01-30T03:12:15;12.32;;;8.15;;
75639;SDS011;64233;51.486;6.332;2024-01-30T03:14:40;14.30;;;7.75;;
75639;SDS011;64233;51.486;6.332;2024-01-30T03:17:06;18.23;;;7.63;;
75639;SDS011;64233;51.486;6.332;2024-01-30T03:19:31;11.27;;;7.15;;
75639;SDS011;64233;51.486;6.332;2024-01-30T03:21:56;19.63;;;7.93;;
75639;SDS011;64233;51.486;6.332;2024-01-30T03:24:21;14.73;;;6.90;;
75639;SDS011;64233;51.486;6.332;2024-01-30T03:26:46;13.37;;;7.57;;
75639;SDS011;64233;51.486;6.332;2024-01-30T03:29:12;16.77;;;7.07;;
75639;SDS011;64233;51.486;6.332;2024-01-30T03:31:37;10.50;;;7.25;;
75639;SDS011;64233;51.486;6.332;2024-01-30T03:34:05;10.33;;;6.67;;
75639;SDS011;64233;51.486;6.332;2024-01-30T03:36:30;14.20;;;7.55;;
75639;SDS011;64233;51.486;6.332;2024-01-30T03:38:57;13.82;;;6.60;;
75639;SDS011;64233;51.486;6.332;2024-01-30T03:41:23;14.90;;;7.88;;
75639;SDS011;64233;51.486;6.332;2024-01-30T03:43:48;13.37;;;6.73;;
75639;SDS011;64233;51.486;6.332;2024-01-30T03:46:13;14.27;;;7.27;;
75639;SDS011;64233;51.486;6.332;2024-01-30T03:48:38;12.98;;;7.82;;
75639;SDS011;64233;51.486;6.332;2024-01-30T03:51:04;11.13;;;7.03;;
75639;SDS011;64233;51.486;6.332;2024-01-30T03:53:30;10.70;;;7.18;;
75639;SDS011;64233;51.486;6.332;2024-01-30T03:55:55;17.53;;;7.63;;
75639;SDS011;64233;51.486;6.332;2024-01-30T03:58:20;13.87;;;7.70;;
75639;SDS011;64233;51.486;6.332;2024-01-30T04:00:45;12.27;;;7.17;;
75639;SDS011;64233;51.486;6.332;2024-01-30T04:03:10;12.17;;;7.37;;
75639;SDS011;64233;51.486;6.332;2024-01-30T04:05:39;14.63;;;7.30;;
75639;SDS011;64233;51.486;6.332;2024-01-30T04:08:04;13.68;;;7.57;;
75639;SDS011;64233;51.486;6.332;2024-01-30T04:10:29;13.18;;;7.53;;
75639;SDS011;64233;51.486;6.332;2024-01-30T04:12:54;14.10;;;8.15;;
75639;SDS011;64233;51.486;6.332;2024-01-30T04:15:20;10.63;;;7.00;;
75639;SDS011;64233;51.486;6.332;2024-01-30T04:17:45;14.07;;;7.55;;
75639;SDS011;64233;51.486;6.332;2024-01-30T04:20:14;15.83;;;7.53;;
75639;SDS011;64233;51.486;6.332;2024-01-30T04:22:41;10.30;;;6.75;;
75639;SDS011;64233;51.486;6.332;2024-01-30T04:25:06;10.55;;;6.88;;
75639;SDS011;64233;51.486;6.332;2024-01-30T04:27:31;12.30;;;7.75;;
75639;SDS011;64233;51.486;6.332;2024-01-30T04:29:56;10.65;;;7.15;;
75639;SDS011;64233;51.486;6.332;2024-01-30T04:32:22;9.90;;;6.80;;
75639;SDS011;64233;51.486;6.332;2024-01-30T04:34:47;13.50;;;8.40;;
75639;SDS011;64233;51.486;6.332;2024-01-30T04:37:12;15.83;;;7.57;;
75639;SDS011;64233;51.486;6.332;2024-01-30T04:39:38;10.73;;;6.60;;
75639;SDS011;64233;51.486;6.332;2024-01-30T04:42:03;11.87;;;7.30;;
75639;SDS011;64233;51.486;6.332;2024-01-30T04:44:28;10.70;;;6.95;;
75639;SDS011;64233;51.486;6.332;2024-01-30T04:46:53;7.73;;;5.93;;
75639;SDS011;64233;51.486;6.332;2024-01-30T04:49:19;16.17;;;7.47;;
75639;SDS011;64233;51.486;6.332;2024-01-30T04:51:44;12.87;;;7.90;;
75639;SDS011;64233;51.486;6.332;2024-01-30T04:54:09;10.40;;;7.13;;
75639;SDS011;64233;51.486;6.332;2024-01-30T04:56:34;18.03;;;7.47;;
75639;SDS011;64233;51.486;6.332;2024-01-30T04:59:00;14.10;;;7.13;;
75639;SDS011;64233;51.486;6.332;2024-01-30T05:01:25;13.80;;;7.33;;
75639;SDS011;64233;51.486;6.332;2024-01-30T05:03:51;11.50;;;7.00;;
75639;SDS011;64233;51.486;6.332;2024-01-30T05:06:25;12.93;;;7.77;;
75639;SDS011;64233;51.486;6.332;2024-01-30T05:08:51;10.57;;;6.53;;
75639;SDS011;64233;51.486;6.332;2024-01-30T05:11:16;8.60;;;6.82;;
75639;SDS011;64233;51.486;6.332;2024-01-30T05:13:42;16.97;;;7.07;;
75639;SDS011;64233;51.486;6.332;2024-01-30T05:16:07;12.23;;;7.13;;
75639;SDS011;64233;51.486;6.332;2024-01-30T05:18:32;12.23;;;7.53;;
75639;SDS011;64233;51.486;6.332;2024-01-30T05:20:57;10.50;;;7.05;;
75639;SDS011;64233;51.486;6.332;2024-01-30T05:23:22;15.20;;;7.63;;
75639;SDS011;64233;51.486;6.332;2024-01-30T05:25:48;16.67;;;8.80;;
75639;SDS011;64233;51.486;6.332;2024-01-30T05:28:13;10.57;;;6.87;;
75639;SDS011;64233;51.486;6.332;2024-01-30T05:30:38;12.30;;;6.85;;
75639;SDS011;64233;51.486;6.332;2024-01-30T05:33:04;11.07;;;6.43;;
75639;SDS011;64233;51.486;6.332;2024-01-30T05:35:29;14.50;;;7.53;;
75639;SDS011;64233;51.486;6.332;2024-01-30T05:37:54;12.93;;;6.68;;
75639;SDS011;64233;51.486;6.332;2024-01-30T05:40:20;14.10;;;7.13;;
75639;SDS011;64233;51.486;6.332;2024-01-30T05:42:45;9.93;;;5.87;;
75639;SDS011;64233;51.486;6.332;2024-01-30T05:45:10;11.60;;;6.30;;
75639;SDS011;64233;51.486;6.332;2024-01-30T05:47:35;12.50;;;7.55;;
75639;SDS011;64233;51.486;6.332;2024-01-30T05:50:00;11.57;;;6.43;;
75639;SDS011;64233;51.486;6.332;2024-01-30T05:52:26;12.77;;;7.38;;
75639;SDS011;64233;51.486;6.332;2024-01-30T05:54:51;12.70;;;7.30;;
75639;SDS011;64233;51.486;6.332;2024-01-30T05:57:16;13.93;;;6.13;;
75639;SDS011;64233;51.486;6.332;2024-01-30T05:59:42;15.50;;;8.13;;
75639;SDS011;64233;51.486;6.332;2024-01-30T06:02:08;18.80;;;8.07;;
75639;SDS011;64233;51.486;6.332;2024-01-30T06:04:35;14.48;;;8.00;;
75639;SDS011;64233;51.486;6.332;2024-01-30T06:07:00;18.70;;;7.57;;
75639;SDS011;64233;51.486;6.332;2024-01-30T06:09:27;15.13;;;7.93;;
75639;SDS011;64233;51.486;6.332;2024-01-30T06:11:52;13.88;;;8.55;;
75639;SDS011;64233;51.486;6.332;2024-01-30T06:14:17;16.10;;;8.63;;
75639;SDS011;64233;51.486;6.332;2024-01-30T06:16:42;17.27;;;8.13;;
75639;SDS011;64233;51.486;6.332;2024-01-30T06:19:07;16.30;;;7.97;;
75639;SDS011;64233;51.486;6.332;2024-01-30T06:21:32;14.07;;;7.37;;
75639;SDS011;64233;51.486;6.332;2024-01-30T06:24:01;11.38;;;7.40;;
75639;SDS011;64233;51.486;6.332;2024-01-30T06:26:27;12.30;;;7.95;;
75639;SDS011;64233;51.486;6.332;2024-01-30T06:28:52;11.53;;;6.57;;
75639;SDS011;64233;51.486;6.332;2024-01-30T06:31:17;11.73;;;7.50;;
75639;SDS011;64233;51.486;6.332;2024-01-30T06:33:42;13.90;;;7.22;;
75639;SDS011;64233;51.486;6.332;2024-01-30T06:36:08;14.30;;;8.10;;
75639;SDS011;64233;51.486;6.332;2024-01-30T06:38:33;12.63;;;7.72;;
75639;SDS011;64233;51.486;6.332;2024-01-30T06:40:58;13.32;;;8.32;;
75639;SDS011;64233;51.486;6.332;2024-01-30T06:43:23;10.85;;;7.22;;
75639;SDS011;64233;51.486;6.332;2024-01-30T06:45:48;10.63;;;6.60;;
75639;SDS011;64233;51.486;6.332;2024-01-30T06:48:14;13.95;;;8.07;;
75639;SDS011;64233;51.486;6.332;2024-01-30T06:50:39;9.88;;;6.28;;
75639;SDS011;64233;51.486;6.332;2024-01-30T06:53:04;12.20;;;8.03;;
75639;SDS011;64233;51.486;6.332;2024-01-30T06:55:29;13.33;;;7.47;;
75639;SDS011;64233;51.486;6.332;2024-01-30T06:57:54;12.73;;;6.70;;
75639;SDS011;64233;51.486;6.332;2024-01-30T07:00:20;13.18;;;7.30;;
75639;SDS011;64233;51.486;6.332;2024-01-30T07:02:46;12.40;;;6.97;;
75639;SDS011;64233;51.486;6.332;2024-01-30T07:05:11;11.95;;;6.13;;
75639;SDS011;64233;51.486;6.332;2024-01-30T07:07:36;13.53;;;7.07;;
75639;SDS011;64233;51.486;6.332;2024-01-30T07:10:02;10.33;;;7.00;;
75639;SDS011;64233;51.486;6.332;2024-01-30T07:12:27;14.27;;;7.65;;
75639;SDS011;64233;51.486;6.332;2024-01-30T07:14:52;11.95;;;6.43;;
75639;SDS011;64233;51.486;6.332;2024-01-30T07:17:18;10.75;;;6.30;;
75639;SDS011;64233;51.486;6.332;2024-01-30T07:19:43;9.83;;;7.00;;
75639;SDS011;64233;51.486;6.332;2024-01-30T07:22:08;16.33;;;7.80;;
75639;SDS011;64233;51.486;6.332;2024-01-30T07:24:34;11.60;;;7.70;;
75639;SDS011;64233;51.486;6.332;2024-01-30T07:26:59;10.77;;;7.32;;
75639;SDS011;64233;51.486;6.332;2024-01-30T07:29:24;13.43;;;7.07;;
75639;SDS011;64233;51.486;6.332;2024-01-30T07:31:50;14.67;;;8.07;;
75639;SDS011;64233;51.486;6.332;2024-01-30T07:34:15;10.83;;;7.23;;
75639;SDS011;64233;51.486;6.332;2024-01-30T07:36:40;12.63;;;7.60;;
75639;SDS011;64233;51.486;6.332;2024-01-30T07:39:05;12.82;;;6.72;;
75639;SDS011;64233;51.486;6.332;2024-01-30T07:41:30;18.87;;;7.57;;
75639;SDS011;64233;51.486;6.332;2024-01-30T07:43:56;11.10;;;7.05;;
75639;SDS011;64233;51.486;6.332;2024-01-30T07:46:21;11.37;;;7.07;;
75639;SDS011;64233;51.486;6.332;2024-01-30T07:48:47;14.93;;;7.77;;
75639;SDS011;64233;51.486;6.332;2024-01-30T07:51:12;14.00;;;6.93;;
75639;SDS011;64233;51.486;6.332;2024-01-30T07:53:37;12.73;;;7.72;;
75639;SDS011;64233;51.486;6.332;2024-01-30T07:56:02;12.20;;;6.83;;
75639;SDS011;64233;51.486;6.332;2024-01-30T07:58:28;12.48;;;6.88;;
75639;SDS011;64233;51.486;6.332;2024-01-30T08:00:53;13.87;;;7.03;;
75639;SDS011;64233;51.486;6.332;2024-01-30T08:03:18;12.02;;;6.97;;
75639;SDS011;64233;51.486;6.332;2024-01-30T08:05:43;11.07;;;7.23;;
75639;SDS011;64233;51.486;6.332;2024-01-30T08:08:09;12.80;;;7.20;;
75639;SDS011;64233;51.486;6.332;2024-01-30T08:10:34;13.70;;;6.97;;
75639;SDS011;64233;51.486;6.332;2024-01-30T08:12:59;11.05;;;7.55;;
75639;SDS011;64233;51.486;6.332;2024-01-30T08:15:24;11.43;;;7.00;;
75639;SDS011;64233;51.486;6.332;2024-01-30T08:17:49;11.07;;;7.17;;
75639;SDS011;64233;51.486;6.332;2024-01-30T08:20:15;14.48;;;6.78;;
75639;SDS011;64233;51.486;6.332;2024-01-30T08:22:41;11.77;;;7.10;;
75639;SDS011;64233;51.486;6.332;2024-01-30T08:25:06;12.87;;;7.23;;
75639;SDS011;64233;51.486;6.332;2024-01-30T08:27:32;11.48;;;6.07;;
75639;SDS011;64233;51.486;6.332;2024-01-30T08:29:57;9.63;;;6.82;;
75639;SDS011;64233;51.486;6.332;2024-01-30T08:32:23;15.07;;;6.90;;
75639;SDS011;64233;51.486;6.332;2024-01-30T08:34:48;15.30;;;8.02;;
75639;SDS011;64233;51.486;6.332;2024-01-30T08:37:14;13.27;;;7.07;;
75639;SDS011;64233;51.486;6.332;2024-01-30T08:39:41;14.38;;;7.45;;
75639;SDS011;64233;51.486;6.332;2024-01-30T08:42:06;12.13;;;7.07;;
75639;SDS011;64233;51.486;6.332;2024-01-30T08:44:33;15.13;;;6.95;;
75639;SDS011;64233;51.486;6.332;2024-01-30T08:46:58;14.23;;;7.03;;
75639;SDS011;64233;51.486;6.332;2024-01-30T08:49:23;13.67;;;6.50;;
75639;SDS011;64233;51.486;6.332;2024-01-30T08:51:48;11.03;;;6.67;;
75639;SDS011;64233;51.486;6.332;2024-01-30T08:54:13;14.38;;;7.50;;
75639;SDS011;64233;51.486;6.332;2024-01-30T08:56:39;7.93;;;5.67;;
75639;SDS011;64233;51.486;6.332;2024-01-30T08:59:04;11.60;;;7.10;;
75639;SDS011;64233;51.486;6.332;2024-01-30T09:01:29;11.67;;;6.90;;
75639;SDS011;64233;51.486;6.332;2024-01-30T09:03:54;10.93;;;7.03;;
75639;SDS011;64233;51.486;6.332;2024-01-30T09:06:19;10.97;;;6.20;;
75639;SDS011;64233;51.486;6.332;2024-01-30T09:08:44;12.60;;;7.15;;
75639;SDS011;64233;51.486;6.332;2024-01-30T09:11:13;11.10;;;5.85;;
75639;SDS011;64233;51.486;6.332;2024-01-30T09:13:39;8.55;;;6.22;;
75639;SDS011;64233;51.486;6.332;2024-01-30T09:16:04;10.00;;;7.13;;
75639;SDS011;64233;51.486;6.332;2024-01-30T09:18:30;13.93;;;7.82;;
75639;SDS011;64233;51.486;6.332;2024-01-30T09:20:55;13.30;;;7.07;;
75639;SDS011;64233;51.486;6.332;2024-01-30T09:23:20;10.90;;;6.63;;
75639;SDS011;64233;51.486;6.332;2024-01-30T09:25:46;14.05;;;8.07;;
75639;SDS011;64233;51.486;6.332;2024-01-30T09:28:12;14.40;;;8.00;;
75639;SDS011;64233;51.486;6.332;2024-01-30T09:30:37;12.70;;;7.75;;
75639;SDS011;64233;51.486;6.332;2024-01-30T09:33:02;11.40;;;6.30;;
75639;SDS011;64233;51.486;6.332;2024-01-30T09:35:28;10.05;;;6.15;;
75639;SDS011;64233;51.486;6.332;2024-01-30T09:37:54;9.77;;;5.50;;
75639;SDS011;64233;51.486;6.332;2024-01-30T09:40:19;10.17;;;6.30;;
75639;SDS011;64233;51.486;6.332;2024-01-30T09:42:46;7.28;;;4.85;;
75639;SDS011;64233;51.486;6.332;2024-01-30T09:45:13;12.05;;;6.10;;
75639;SDS011;64233;51.486;6.332;2024-01-30T09:47:42;8.65;;;5.15;;
75639;SDS011;64233;51.486;6.332;2024-01-30T09:50:08;13.65;;;6.10;;
75639;SDS011;64233;51.486;6.332;2024-01-30T09:52:33;8.98;;;5.70;;
75639;SDS011;64233;51.486;6.332;2024-01-30T09:54:59;10.55;;;5.95;;
75639;SDS011;64233;51.486;6.332;2024-01-30T09:57:24;9.35;;;5.85;;
75639;SDS011;64233;51.486;6.332;2024-01-30T09:59:51;8.77;;;6.05;;
75639;SDS011;64233;51.486;6.332;2024-01-30T10:02:17;9.20;;;5.32;;
75639;SDS011;64233;51.486;6.332;2024-01-30T10:04:42;9.88;;;5.60;;
75639;SDS011;64233;51.486;6.332;2024-01-30T10:07:08;9.10;;;5.87;;
75639;SDS011;64233;51.486;6.332;2024-01-30T10:09:34;9.45;;;5.50;;
75639;SDS011;64233;51.486;6.332;2024-01-30T10:11:59;9.38;;;5.65;;
75639;SDS011;64233;51.486;6.332;2024-01-30T10:14:25;12.75;;;5.43;;
75639;SDS011;64233;51.486;6.332;2024-01-30T10:16:50;7.53;;;5.35;;
75639;SDS011;64233;51.486;6.332;2024-01-30T10:19:15;11.53;;;6.13;;
75639;SDS011;64233;51.486;6.332;2024-01-30T10:21:41;12.45;;;6.30;;
75639;SDS011;64233;51.486;6.332;2024-01-30T10:24:06;7.33;;;5.10;;
75639;SDS011;64233;51.486;6.332;2024-01-30T10:26:31;13.48;;;6.05;;
75639;SDS011;64233;51.486;6.332;2024-01-30T10:28:59;8.98;;;6.15;;
75639;SDS011;64233;51.486;6.332;2024-01-30T10:31:24;12.55;;;6.38;;
75639;SDS011;64233;51.486;6.332;2024-01-30T10:33:50;9.02;;;5.35;;
75639;SDS011;64233;51.486;6.332;2024-01-30T10:36:15;10.83;;;6.17;;
75639;SDS011;64233;51.486;6.332;2024-01-30T10:38:42;9.25;;;5.65;;
75639;SDS011;64233;51.486;6.332;2024-01-30T10:41:11;14.52;;;5.85;;
75639;SDS011;64233;51.486;6.332;2024-01-30T10:43:40;9.55;;;5.55;;
75639;SDS011;64233;51.486;6.332;2024-01-30T10:46:18;17.80;;;6.53;;
75639;SDS011;64233;51.486;6.332;2024-01-30T10:48:44;13.63;;;4.28;;
75639;SDS011;64233;51.486;6.332;2024-01-30T10:51:11;9.93;;;4.85;;
75639;SDS011;64233;51.486;6.332;2024-01-30T10:53:38;7.32;;;4.70;;
75639;SDS011;64233;51.486;6.332;2024-01-30T10:56:03;7.13;;;4.32;;
75639;SDS011;64233;51.486;6.332;2024-01-30T10:58:29;6.95;;;4.40;;
75639;SDS011;64233;51.486;6.332;2024-01-30T11:00:54;6.60;;;4.87;;
75639;SDS011;64233;51.486;6.332;2024-01-30T11:03:20;3.88;;;2.92;;
75639;SDS011;64233;51.486;6.332;2024-01-30T11:05:49;6.88;;;3.20;;
75639;SDS011;64233;51.486;6.332;2024-01-30T11:08:14;7.25;;;3.00;;
75639;SDS011;64233;51.486;6.332;2024-01-30T11:10:48;8.03;;;4.40;;
75639;SDS011;64233;51.486;6.332;2024-01-30T11:13:13;7.25;;;4.70;;
75639;SDS011;64233;51.486;6.332;2024-01-30T11:15:39;5.87;;;4.27;;
75639;SDS011;64233;51.486;6.332;2024-01-30T11:18:05;8.45;;;4.75;;
75639;SDS011;64233;51.486;6.332;2024-01-30T11:20:31;5.65;;;3.95;;
75639;SDS011;64233;51.486;6.332;2024-01-30T11:22:56;8.80;;;4.20;;
75639;SDS011;64233;51.486;6.332;2024-01-30T11:25:22;9.88;;;4.45;;
75639;SDS011;64233;51.486;6.332;2024-01-30T11:27:51;9.30;;;3.95;;
75639;SDS011;64233;51.486;6.332;2024-01-30T11:30:27;7.20;;;4.80;;
75639;SDS011;64233;51.486;6.332;2024-01-30T11:35:29;9.68;;;5.03;;
75639;SDS011;64233;51.486;6.332;2024-01-30T11:37:55;8.68;;;5.28;;
75639;SDS011;64233;51.486;6.332;2024-01-30T11:40:22;8.00;;;3.55;;
75639;SDS011;64233;51.486;6.332;2024-01-30T11:42:47;8.77;;;4.30;;
75639;SDS011;64233;51.486;6.332;2024-01-30T11:45:13;6.72;;;4.63;;
75639;SDS011;64233;51.486;6.332;2024-01-30T11:47:39;11.00;;;4.30;;
75639;SDS011;64233;51.486;6.332;2024-01-30T11:50:04;5.55;;;3.45;;
75639;SDS011;64233;51.486;6.332;2024-01-30T11:52:31;7.20;;;4.53;;
75639;SDS011;64233;51.486;6.332;2024-01-30T11:54:56;8.82;;;4.57;;
75639;SDS011;64233;51.486;6.332;2024-01-30T11:57:22;7.05;;;3.00;;
75639;SDS011;64233;51.486;6.332;2024-01-30T11:59:47;13.87;;;4.50;;
75639;SDS011;64233;51.486;6.332;2024-01-30T12:02:15;11.10;;;5.03;;
75639;SDS011;64233;51.486;6.332;2024-01-30T12:04:41;8.27;;;4.75;;
75639;SDS011;64233;51.486;6.332;2024-01-30T12:07:06;10.03;;;5.30;;
75639;SDS011;64233;51.486;6.332;2024-01-30T12:09:31;6.78;;;3.78;;
75639;SDS011;64233;51.486;6.332;2024-01-30T12:11:57;5.27;;;3.77;;
75639;SDS011;64233;51.486;6.332;2024-01-30T12:14:22;6.83;;;4.07;;
75639;SDS011;64233;51.486;6.332;2024-01-30T12:16:48;7.88;;;4.38;;
75639;SDS011;64233;51.486;6.332;2024-01-30T12:19:22;8.68;;;5.10;;
75639;SDS011;64233;51.486;6.332;2024-01-30T12:21:48;15.82;;;5.25;;
75639;SDS011;64233;51.486;6.332;2024-01-30T12:24:18;6.15;;;4.00;;
75639;SDS011;64233;51.486;6.332;2024-01-30T12:26:43;9.32;;;5.32;;
75639;SDS011;64233;51.486;6.332;2024-01-30T12:29:08;8.93;;;4.33;;
75639;SDS011;64233;51.486;6.332;2024-01-30T12:31:34;11.03;;;4.77;;
75639;SDS011;64233;51.486;6.332;2024-01-30T12:33:59;5.43;;;3.60;;
75639;SDS011;64233;51.486;6.332;2024-01-30T12:36:24;6.88;;;4.53;;
75639;SDS011;64233;51.486;6.332;2024-01-30T12:38:50;6.22;;;4.10;;
75639;SDS011;64233;51.486;6.332;2024-01-30T12:41:15;11.17;;;5.40;;
75639;SDS011;64233;51.486;6.332;2024-01-30T12:43:40;5.40;;;3.53;;
75639;SDS011;64233;51.486;6.332;2024-01-30T12:46:05;10.77;;;4.83;;
75639;SDS011;64233;51.486;6.332;2024-01-30T12:48:31;16.58;;;5.60;;
75639;SDS011;64233;51.486;6.332;2024-01-30T12:50:56;10.00;;;4.07;;
75639;SDS011;64233;51.486;6.332;2024-01-30T12:53:22;8.02;;;4.45;;
75639;SDS011;64233;51.486;6.332;2024-01-30T12:55:47;7.83;;;4.57;;
75639;SDS011;64233;51.486;6.332;2024-01-30T12:58:15;10.25;;;4.03;;
75639;SDS011;64233;51.486;6.332;2024-01-30T13:00:40;6.80;;;4.30;;
75639;SDS011;64233;51.486;6.332;2024-01-30T13:03:07;11.07;;;4.93;;
75639;SDS011;64233;51.486;6.332;2024-01-30T13:05:33;6.47;;;4.53;;
75639;SDS011;64233;51.486;6.332;2024-01-30T13:07:58;8.40;;;4.50;;
75639;SDS011;64233;51.486;6.332;2024-01-30T13:10:24;7.28;;;4.63;;
75639;SDS011;64233;51.486;6.332;2024-01-30T13:12:49;8.53;;;4.40;;
75639;SDS011;64233;51.486;6.332;2024-01-30T13:15:14;3.88;;;2.50;;
75639;SDS011;64233;51.486;6.332;2024-01-30T13:17:40;6.78;;;4.20;;
75639;SDS011;64233;51.486;6.332;2024-01-30T13:20:07;11.27;;;4.88;;
75639;SDS011;64233;51.486;6.332;2024-01-30T13:22:33;7.72;;;4.93;;
75639;SDS011;64233;51.486;6.332;2024-01-30T13:24:58;8.30;;;5.43;;
75639;SDS011;64233;51.486;6.332;2024-01-30T13:27:23;5.93;;;4.17;;
75639;SDS011;64233;51.486;6.332;2024-01-30T13:29:49;12.07;;;5.13;;
75639;SDS011;64233;51.486;6.332;2024-01-30T13:32:14;8.43;;;5.20;;
75639;SDS011;64233;51.486;6.332;2024-01-30T13:34:39;5.20;;;3.10;;
75639;SDS011;64233;51.486;6.332;2024-01-30T13:37:06;4.55;;;3.78;;
75639;SDS011;64233;51.486;6.332;2024-01-30T13:39:31;2.90;;;2.57;;
75639;SDS011;64233;51.486;6.332;2024-01-30T13:41:56;5.63;;;3.00;;
75639;SDS011;64233;51.486;6.332;2024-01-30T13:44:21;7.03;;;3.97;;
75639;SDS011;64233;51.486;6.332;2024-01-30T13:46:46;5.73;;;3.90;;
75639;SDS011;64233;51.486;6.332;2024-01-30T13:49:12;6.47;;;3.90;;
75639;SDS011;64233;51.486;6.332;2024-01-30T13:51:37;7.93;;;2.83;;
75639;SDS011;64233;51.486;6.332;2024-01-30T13:54:02;7.53;;;3.40;;
75639;SDS011;64233;51.486;6.332;2024-01-30T13:56:30;6.15;;;2.17;;
75639;SDS011;64233;51.486;6.332;2024-01-30T13:58:58;5.88;;;3.38;;
75639;SDS011;64233;51.486;6.332;2024-01-30T14:01:24;6.60;;;3.10;;
75639;SDS011;64233;51.486;6.332;2024-01-30T14:03:50;6.53;;;2.20;;
75639;SDS011;64233;51.486;6.332;2024-01-30T14:06:15;8.70;;;2.33;;
75639;SDS011;64233;51.486;6.332;2024-01-30T14:08:40;2.80;;;1.80;;
75639;SDS011;64233;51.486;6.332;2024-01-30T14:11:08;4.47;;;1.63;;
75639;SDS011;64233;51.486;6.332;2024-01-30T14:13:33;2.10;;;1.67;;
75639;SDS011;64233;51.486;6.332;2024-01-30T14:15:58;3.88;;;1.75;;
75639;SDS011;64233;51.486;6.332;2024-01-30T14:18:24;2.55;;;1.38;;
75639;SDS011;64233;51.486;6.332;2024-01-30T14:20:50;1.52;;;1.38;;
75639;SDS011;64233;51.486;6.332;2024-01-30T14:23:17;4.00;;;1.80;;
75639;SDS011;64233;51.486;6.332;2024-01-30T14:25:42;1.45;;;1.27;;
75639;SDS011;64233;51.486;6.332;2024-01-30T14:28:07;2.73;;;1.33;;
75639;SDS011;64233;51.486;6.332;2024-01-30T14:30:32;2.47;;;1.05;;
75639;SDS011;64233;51.486;6.332;2024-01-30T14:32:57;4.60;;;1.40;;
75639;SDS011;64233;51.486;6.332;2024-01-30T14:35:23;3.80;;;1.50;;